Time;durP1;ratioP1;P1;durP2;ratioP2;P2;SDS_P1;SDS_P2;PMS_P1;PMS_P2;Temp;Humidity;BMP_temperature;BMP_pressure;BME280_temperature;BME280_humidity;BME280_pressure;Samples;Min_cycle;Max_cycle;Signal;HPM_P1;HPM_P2
2022/12/01 00:00:44;;;;;;;130.53;50.93;;;4.50;1.00;;;;;;6184258;23;20841;-46
2022/12/01 00:03:09;;;;;;;129.47;51.33;;;4.50;1.00;;;;;;6184044;23;20378;-46
2022/12/01 00:05:35;;;;;;;127.53;51.87;;;4.50;1.00;;;;;;6184085;23;20151;-46
2022/12/01 00:08:01;;;;;;;121.90;48.30;;;4.50;1.00;;;;;;6183802;23;20171;-46
2022/12/01 00:10:27;;;;;;;130.27;51.00;;;4.50;1.00;;;;;;6183747;23;20151;-46
2022/12/01 00:12:57;;;;;;;124.33;50.47;;;4.50;1.00;;;;;;6183948;23;20885;-46
2022/12/01 00:15:26;;;;;;;132.97;50.00;;;4.50;1.00;;;;;;6184253;23;20390;-45
2022/12/01 00:17:51;;;;;;;132.07;51.53;;;4.50;1.00;;;;;;6183782;23;20387;-45
2022/12/01 00:20:17;;;;;;;116.67;47.97;;;4.50;1.00;;;;;;6184126;23;20756;-46
2022/12/01 00:22:44;;;;;;;125.00;50.80;;;4.40;1.00;;;;;;6183792;23;20206;-46
2022/12/01 00:25:12;;;;;;;127.03;50.00;;;4.50;1.00;;;;;;6176860;23;20206;-45
2022/12/01 00:27:38;;;;;;;121.97;50.73;;;4.40;1.00;;;;;;6183686;23;20414;-46
2022/12/01 00:30:06;;;;;;;113.20;47.90;;;4.40;1.00;;;;;;6183653;23;20389;-50
2022/12/01 00:32:32;;;;;;;121.47;50.07;;;4.40;1.00;;;;;;6181517;23;20370;-45
2022/12/01 00:34:58;;;;;;;126.20;50.17;;;4.40;1.00;;;;;;6180730;23;20414;-45
2022/12/01 00:37:23;;;;;;;129.27;49.70;;;4.40;1.00;;;;;;6180806;23;20165;-46
2022/12/01 00:39:49;;;;;;;125.33;48.50;;;4.40;1.00;;;;;;6180066;23;20202;-45
2022/12/01 00:42:14;;;;;;;117.27;49.33;;;4.40;1.00;;;;;;6182792;23;20147;-45
2022/12/01 00:44:40;;;;;;;114.33;47.90;;;4.40;1.00;;;;;;6181867;23;20845;-45
2022/12/01 00:47:06;;;;;;;115.27;47.87;;;4.40;99.90;;;;;;6180969;23;20237;-52
2022/12/01 00:49:31;;;;;;;110.00;46.10;;;4.30;99.90;;;;;;6180111;23;20144;-45
2022/12/01 00:51:57;;;;;;;115.33;48.80;;;4.30;99.90;;;;;;6180191;23;20156;-45
2022/12/01 00:54:23;;;;;;;122.83;49.53;;;4.30;99.90;;;;;;6181807;23;20154;-45
2022/12/01 00:56:48;;;;;;;119.37;50.13;;;4.30;99.90;;;;;;6178399;23;20553;-45
2022/12/01 00:59:14;;;;;;;127.33;48.30;;;4.30;99.90;;;;;;6180871;23;20173;-45
2022/12/01 01:01:40;;;;;;;125.27;49.20;;;4.50;99.90;;;;;;6181216;23;20193;-45
2022/12/01 01:04:05;;;;;;;114.37;48.30;;;4.40;99.90;;;;;;6180673;23;20162;-45
2022/12/01 01:06:31;;;;;;;119.70;49.90;;;4.40;99.90;;;;;;6180121;23;20261;-45
2022/12/01 01:08:57;;;;;;;115.33;47.60;;;4.40;99.90;;;;;;6179910;23;20405;-45
2022/12/01 01:11:22;;;;;;;126.67;49.70;;;4.40;99.90;;;;;;6181765;23;20152;-47
2022/12/01 01:13:48;;;;;;;126.53;51.00;;;4.40;99.90;;;;;;6180550;23;20154;-45
2022/12/01 01:16:19;;;;;;;120.43;49.67;;;4.40;99.90;;;;;;6180686;23;20582;-45
2022/12/01 01:18:46;;;;;;;117.97;49.93;;;4.40;99.90;;;;;;6179093;23;20158;-45
2022/12/01 01:21:14;;;;;;;116.27;45.90;;;4.40;99.90;;;;;;6180698;23;20370;-46
2022/12/01 01:23:41;;;;;;;124.93;50.90;;;4.40;99.90;;;;;;6181181;23;20382;-45
2022/12/01 01:26:14;;;;;;;125.53;50.50;;;4.40;99.90;;;;;;6182964;23;20484;-45
2022/12/01 01:28:40;;;;;;;118.30;48.90;;;4.40;99.90;;;;;;6183472;23;20386;-47
2022/12/01 01:31:07;;;;;;;113.73;49.23;;;4.40;99.90;;;;;;6183041;23;20421;-46
2022/12/01 01:33:33;;;;;;;125.73;48.00;;;4.40;99.90;;;;;;6183165;23;20186;-45
2022/12/01 01:36:00;;;;;;;112.37;48.47;;;4.30;99.90;;;;;;6183267;23;21089;-45
2022/12/01 01:38:26;;;;;;;122.70;48.83;;;4.30;99.90;;;;;;6183078;23;20317;-46
2022/12/01 01:40:52;;;;;;;120.97;49.37;;;4.30;99.90;;;;;;6183298;23;20490;-45
2022/12/01 01:43:38;;;;;;;115.90;49.50;;;4.30;99.90;;;;;;6182121;23;20428;-44
2022/12/01 01:46:05;;;;;;;123.00;50.17;;;4.30;99.90;;;;;;6205764;23;20153;-45
2022/12/01 01:48:33;;;;;;;120.77;50.20;;;4.30;99.90;;;;;;6182626;23;20359;-46
2022/12/01 01:50:59;;;;;;;120.00;50.50;;;4.30;99.90;;;;;;6181100;23;20433;-45
2022/12/01 01:53:25;;;;;;;119.27;50.47;;;4.30;99.90;;;;;;6183210;23;20682;-45
2022/12/01 01:55:51;;;;;;;116.77;49.57;;;4.30;99.90;;;;;;6182735;23;20741;-46
2022/12/01 01:58:18;;;;;;;117.80;49.20;;;4.30;99.90;;;;;;6182758;23;20410;-45
2022/12/01 02:00:44;;;;;;;135.00;48.53;;;4.20;99.90;;;;;;6181797;23;20375;-45
2022/12/01 02:03:14;;;;;;;131.37;50.40;;;4.30;99.90;;;;;;6182449;23;20852;-45
2022/12/01 02:05:41;;;;;;;111.03;48.23;;;4.30;99.90;;;;;;6183024;23;20378;-45
2022/12/01 02:08:13;;;;;;;112.30;49.30;;;4.30;99.90;;;;;;6183017;23;20434;-45
2022/12/01 02:11:15;;;;;;;116.17;47.63;;;4.30;99.90;;;;;;6183017;23;20362;-45
2022/12/01 02:13:57;;;;;;;122.40;47.50;;;4.30;99.90;;;;;;6182885;23;20358;-44
2022/12/01 02:16:41;;;;;;;131.50;49.90;;;4.30;99.90;;;;;;6182733;23;20370;-45
2022/12/01 02:19:19;;;;;;;118.00;49.80;;;4.20;99.90;;;;;;6183148;23;20688;-44
2022/12/01 02:22:14;;;;;;;117.63;48.37;;;4.30;99.90;;;;;;6182191;23;20413;-45
2022/12/01 02:25:06;;;;;;;122.27;49.20;;;4.30;99.90;;;;;;6182186;23;20367;-44
2022/12/01 02:28:10;;;;;;;119.03;47.50;;;4.30;99.90;;;;;;6182210;23;20557;-44
2022/12/01 02:30:48;;;;;;;124.63;45.83;;;4.30;99.90;;;;;;6178445;23;20394;-45
2022/12/01 02:33:39;;;;;;;119.60;47.33;;;4.30;99.90;;;;;;6183460;23;20382;-44
2022/12/01 02:36:14;;;;;;;116.83;46.23;;;4.30;99.90;;;;;;6184759;23;20370;-45
2022/12/01 02:38:58;;;;;;;120.80;47.33;;;4.30;99.90;;;;;;6182515;23;20442;-45
2022/12/01 02:41:29;;;;;;;124.57;49.00;;;4.30;99.90;;;;;;6184271;23;20425;-45
2022/12/01 02:44:21;;;;;;;125.23;48.90;;;4.30;99.90;;;;;;6183914;23;20778;-44
2022/12/01 02:46:54;;;;;;;120.10;48.77;;;4.20;99.90;;;;;;6184309;23;20460;-44
2022/12/01 02:49:24;;;;;;;127.10;49.43;;;4.30;99.90;;;;;;6177809;23;20389;-44
2022/12/01 02:51:51;;;;;;;122.13;48.73;;;4.30;99.90;;;;;;6184837;23;20358;-45
2022/12/01 02:54:18;;;;;;;130.90;52.07;;;4.20;99.90;;;;;;6184951;23;20436;-44
2022/12/01 02:56:44;;;;;;;133.43;50.77;;;4.20;99.90;;;;;;6184183;23;20899;-50
2022/12/01 02:59:12;;;;;;;119.83;49.63;;;4.20;99.90;;;;;;6182466;23;20480;-45
2022/12/01 03:01:49;;;;;;;118.63;46.60;;;4.20;99.90;;;;;;6184631;23;20834;-44
2022/12/01 03:04:33;;;;;;;128.30;50.50;;;4.20;99.90;;;;;;6180201;23;20370;-44
2022/12/01 03:07:25;;;;;;;127.77;49.17;;;4.20;99.90;;;;;;6180610;23;20422;-44
2022/12/01 03:10:09;;;;;;;120.13;47.57;;;4.20;99.90;;;;;;6184111;23;20378;-45
2022/12/01 03:13:00;;;;;;;134.93;50.50;;;4.20;99.90;;;;;;6184010;23;20367;-47
2022/12/01 03:15:45;;;;;;;125.53;50.30;;;4.20;99.90;;;;;;6183984;23;20394;-46
2022/12/01 03:18:32;;;;;;;131.13;49.80;;;4.20;99.90;;;;;;6183754;23;20370;-47
2022/12/01 03:21:10;;;;;;;132.60;51.43;;;4.20;99.90;;;;;;6184294;23;20385;-47
2022/12/01 03:23:41;;;;;;;128.50;50.90;;;4.20;99.90;;;;;;6183450;23;20827;-47
2022/12/01 03:26:10;;;;;;;134.97;48.70;;;4.20;99.90;;;;;;6183714;23;20378;-47
2022/12/01 03:28:41;;;;;;;135.07;51.50;;;4.20;99.90;;;;;;6157624;23;20458;-47
2022/12/01 03:31:12;;;;;;;129.07;50.43;;;4.20;99.90;;;;;;6184063;23;20481;-47
2022/12/01 03:33:44;;;;;;;140.37;51.40;;;4.20;99.90;;;;;;6183234;23;20375;-47
2022/12/01 03:36:19;;;;;;;132.77;50.87;;;4.20;99.90;;;;;;6183746;23;20425;-47
2022/12/01 03:38:51;;;;;;;123.43;50.40;;;4.20;99.90;;;;;;6183640;23;20440;-47
2022/12/01 03:41:23;;;;;;;141.67;52.00;;;4.20;99.90;;;;;;6183740;23;20390;-47
2022/12/01 03:43:56;;;;;;;131.13;50.70;;;4.20;99.90;;;;;;6183115;23;20797;-46
2022/12/01 03:47:01;;;;;;;125.90;49.53;;;4.10;99.90;;;;;;6184014;23;20418;-47
2022/12/01 03:49:27;;;;;;;135.67;50.30;;;4.10;99.90;;;;;;6156713;23;20402;-47
2022/12/01 03:52:12;;;;;;;130.90;50.10;;;4.10;99.90;;;;;;6183869;23;20810;-47
2022/12/01 03:55:01;;;;;;;136.03;52.53;;;4.10;99.90;;;;;;6183542;23;20371;-47
2022/12/01 03:57:37;;;;;;;136.63;49.80;;;4.10;99.90;;;;;;6183606;23;20425;-47
2022/12/01 04:00:05;;;;;;;137.03;52.13;;;4.10;99.90;;;;;;6176827;23;20378;-47
2022/12/01 04:02:31;;;;;;;137.77;50.10;;;4.10;99.90;;;;;;6183416;23;20817;-47
2022/12/01 04:04:57;;;;;;;139.53;51.93;;;4.10;99.90;;;;;;6183514;23;20393;-47
2022/12/01 04:07:23;;;;;;;127.37;50.77;;;4.10;99.90;;;;;;6182806;23;20538;-47
2022/12/01 04:09:48;;;;;;;137.93;51.00;;;4.00;99.90;;;;;;6183998;23;20753;-47
2022/12/01 04:12:29;;;;;;;132.97;51.03;;;4.10;99.90;;;;;;6183556;23;20178;-47
2022/12/01 04:15:11;;;;;;;131.80;49.70;;;4.10;99.90;;;;;;6182622;23;20143;-47
2022/12/01 04:17:37;;;;;;;135.63;50.97;;;4.00;99.90;;;;;;6183541;23;20371;-47
2022/12/01 04:20:05;;;;;;;141.77;50.47;;;4.00;99.90;;;;;;6182045;23;20409;-47
2022/12/01 04:22:31;;;;;;;140.60;51.50;;;4.00;99.90;;;;;;6183377;23;20483;-47
2022/12/01 04:24:57;;;;;;;136.33;50.90;;;4.00;99.90;;;;;;6183458;23;20377;-46
2022/12/01 04:27:23;;;;;;;142.23;51.87;;;4.00;99.90;;;;;;6183343;23;20426;-47
2022/12/01 04:29:48;;;;;;;141.47;51.90;;;4.00;99.90;;;;;;6183643;23;20574;-47
2022/12/01 04:32:14;;;;;;;148.37;53.20;;;4.10;99.90;;;;;;6183326;23;20371;-47
2022/12/01 04:34:40;;;;;;;143.93;52.13;;;4.00;99.90;;;;;;6183552;23;20213;-47
2022/12/01 04:37:06;;;;;;;150.97;51.30;;;4.00;99.90;;;;;;6183318;23;20790;-47
2022/12/01 04:39:33;;;;;;;130.37;48.40;;;4.00;99.90;;;;;;6183064;23;20677;-46
2022/12/01 04:41:58;;;;;;;128.47;49.73;;;4.00;99.90;;;;;;6183453;23;20383;-47
2022/12/01 04:44:24;;;;;;;135.13;49.37;;;4.00;99.90;;;;;;6183383;23;20386;-47
2022/12/01 04:46:51;;;;;;;135.40;49.57;;;4.00;99.90;;;;;;6183174;23;20175;-47
2022/12/01 04:49:17;;;;;;;133.73;50.00;;;4.00;99.90;;;;;;6183640;23;20155;-47
2022/12/01 04:51:43;;;;;;;135.17;50.20;;;3.90;99.90;;;;;;6182975;23;20428;-46
2022/12/01 04:54:10;;;;;;;136.33;48.97;;;4.00;99.90;;;;;;6183623;23;20712;-47
2022/12/01 04:56:35;;;;;;;123.83;47.90;;;4.00;99.90;;;;;;6183230;23;20147;-47
2022/12/01 04:59:01;;;;;;;125.93;47.83;;;4.00;99.90;;;;;;6183015;23;20474;-47
2022/12/01 05:01:27;;;;;;;136.20;49.80;;;4.00;99.90;;;;;;6183440;23;20150;-47
2022/12/01 05:03:53;;;;;;;139.07;52.60;;;4.00;99.90;;;;;;6183162;23;20182;-47
2022/12/01 05:06:21;;;;;;;130.60;49.03;;;3.90;99.90;;;;;;6183796;23;20977;-47
2022/12/01 05:08:48;;;;;;;137.73;48.67;;;4.00;99.90;;;;;;6183484;23;20140;-48
2022/12/01 05:11:14;;;;;;;125.17;49.10;;;4.00;99.90;;;;;;6183393;23;20383;-46
2022/12/01 05:13:42;;;;;;;129.80;48.13;;;4.00;99.90;;;;;;6183848;23;20398;-47
2022/12/01 05:16:17;;;;;;;135.63;48.50;;;4.00;99.90;;;;;;6183620;23;20367;-46
2022/12/01 05:18:47;;;;;;;122.83;46.80;;;3.90;99.90;;;;;;6183086;23;20366;-47
2022/12/01 05:21:12;;;;;;;136.30;48.37;;;3.90;99.90;;;;;;6181561;23;20382;-47
2022/12/01 05:23:38;;;;;;;137.63;49.80;;;4.00;99.90;;;;;;6182766;23;20432;-47
2022/12/01 05:26:06;;;;;;;132.93;49.03;;;4.00;99.90;;;;;;6182720;23;20238;-47
2022/12/01 05:28:32;;;;;;;139.50;47.17;;;4.00;99.90;;;;;;6183066;23;20832;-47
2022/12/01 05:30:58;;;;;;;134.87;49.03;;;4.00;99.90;;;;;;6182927;23;20440;-47
2022/12/01 05:33:25;;;;;;;121.03;47.03;;;4.00;99.90;;;;;;6182753;23;20156;-47
2022/12/01 05:35:51;;;;;;;122.00;45.93;;;3.90;99.90;;;;;;6182757;23;20177;-46
2022/12/01 05:38:18;;;;;;;140.27;48.67;;;3.90;99.90;;;;;;6182677;23;20421;-49
2022/12/01 05:40:54;;;;;;;133.40;49.37;;;3.90;99.90;;;;;;6183109;23;20430;-47
2022/12/01 05:43:22;;;;;;;148.27;49.97;;;3.90;99.90;;;;;;6182775;23;20685;-47
2022/12/01 05:45:48;;;;;;;136.57;46.20;;;3.90;99.90;;;;;;6183567;23;20378;-47
2022/12/01 05:48:14;;;;;;;136.80;48.20;;;3.90;99.90;;;;;;6173898;23;20516;-46
2022/12/01 05:50:40;;;;;;;141.30;50.20;;;3.90;99.90;;;;;;6183170;23;20418;-47
2022/12/01 05:53:06;;;;;;;151.47;51.17;;;3.90;99.90;;;;;;6205874;23;20724;-47
2022/12/01 05:55:33;;;;;;;148.53;51.37;;;3.90;99.90;;;;;;6206042;23;20163;-47
2022/12/01 05:57:59;;;;;;;145.40;50.70;;;4.00;99.90;;;;;;6182747;23;20414;-47
2022/12/01 06:00:25;;;;;;;144.60;49.80;;;4.00;99.90;;;;;;6182976;23;20869;-47
2022/12/01 06:02:50;;;;;;;143.17;49.63;;;4.00;99.90;;;;;;6182828;23;20484;-47
2022/12/01 06:05:16;;;;;;;142.20;47.70;;;3.90;77.30;;;;;;6183023;23;20143;-47
2022/12/01 06:07:42;;;;;;;123.20;46.87;;;3.90;73.00;;;;;;6182246;23;20613;-47
2022/12/01 06:10:08;;;;;;;132.97;49.23;;;3.90;84.00;;;;;;6182730;23;20197;-47
2022/12/01 06:12:35;;;;;;;147.70;51.57;;;3.90;98.60;;;;;;6183184;23;20150;-46
2022/12/01 06:15:00;;;;;;;134.57;48.40;;;3.90;99.90;;;;;;6183044;23;20383;-47
2022/12/01 06:17:26;;;;;;;140.43;47.90;;;3.90;99.90;;;;;;6182421;23;20390;-48
2022/12/01 06:19:51;;;;;;;129.60;48.63;;;3.90;93.00;;;;;;6182334;23;20195;-47
2022/12/01 06:22:17;;;;;;;138.07;47.27;;;4.00;86.70;;;;;;6182835;23;20148;-47
2022/12/01 06:24:42;;;;;;;124.90;47.37;;;4.00;77.90;;;;;;6182800;23;20262;-47
2022/12/01 06:27:08;;;;;;;138.97;48.57;;;3.90;62.10;;;;;;6182596;23;20178;-47
2022/12/01 06:29:34;;;;;;;127.73;46.70;;;3.90;53.50;;;;;;6182627;23;20163;-47
2022/12/01 06:31:59;;;;;;;127.77;47.97;;;3.90;51.30;;;;;;6181802;23;20226;-47
2022/12/01 06:34:25;;;;;;;131.60;46.07;;;3.90;55.00;;;;;;6182380;23;20171;-47
2022/12/01 06:36:50;;;;;;;134.77;50.30;;;3.90;63.80;;;;;;6182979;23;20162;-48
2022/12/01 06:39:16;;;;;;;134.00;47.33;;;3.90;66.40;;;;;;6182188;23;20210;-47
2022/12/01 06:41:42;;;;;;;139.73;46.70;;;3.90;59.20;;;;;;6182621;23;20156;-48
2022/12/01 06:44:08;;;;;;;133.20;45.83;;;3.90;57.40;;;;;;6182587;23;20160;-52
2022/12/01 06:46:34;;;;;;;121.33;46.67;;;3.90;64.40;;;;;;6182613;23;20418;-47
2022/12/01 06:48:59;;;;;;;134.47;47.20;;;3.90;78.20;;;;;;6182184;23;20386;-47
2022/12/01 06:51:25;;;;;;;134.73;48.37;;;3.90;96.30;;;;;;6182458;23;20171;-47
2022/12/01 06:53:54;;;;;;;129.53;47.40;;;3.90;99.90;;;;;;6182867;23;20213;-47
2022/12/01 06:56:21;;;;;;;131.10;47.00;;;3.90;99.90;;;;;;6182649;23;20453;-47
2022/12/01 06:58:49;;;;;;;138.27;48.70;;;3.90;99.90;;;;;;6182600;23;20375;-47
2022/12/01 07:01:15;;;;;;;135.63;48.13;;;3.90;99.90;;;;;;6183186;23;20381;-47
2022/12/01 07:03:41;;;;;;;135.13;48.90;;;3.90;99.90;;;;;;6182413;23;20383;-47
2022/12/01 07:06:08;;;;;;;131.27;47.53;;;4.00;99.90;;;;;;6182722;23;20768;-47
2022/12/01 07:08:34;;;;;;;133.83;47.60;;;4.00;99.90;;;;;;6182259;23;20429;-47
2022/12/01 07:11:07;;;;;;;143.07;48.30;;;4.00;99.90;;;;;;6182464;23;20359;-47
2022/12/01 07:13:34;;;;;;;135.63;46.37;;;4.00;99.90;;;;;;6180357;23;20373;-47
2022/12/01 07:16:00;;;;;;;133.27;47.03;;;4.00;99.90;;;;;;6179683;23;20382;-47
2022/12/01 07:18:26;;;;;;;133.20;48.70;;;4.00;99.90;;;;;;6182399;23;20715;-47
2022/12/01 07:20:51;;;;;;;137.87;47.70;;;4.00;99.90;;;;;;6184161;23;20366;-47
2022/12/01 07:23:17;;;;;;;138.07;49.10;;;4.00;99.90;;;;;;6184216;23;20155;-48
2022/12/01 07:25:43;;;;;;;138.47;47.70;;;4.00;99.90;;;;;;6184247;23;20149;-47
2022/12/01 07:28:08;;;;;;;137.80;48.13;;;4.00;99.90;;;;;;6184274;23;20241;-47
2022/12/01 07:30:34;;;;;;;128.43;47.77;;;4.00;99.90;;;;;;6184625;23;20147;-47
2022/12/01 07:32:59;;;;;;;141.63;48.83;;;4.00;99.90;;;;;;6183940;23;20143;-47
2022/12/01 07:35:25;;;;;;;132.03;47.07;;;4.00;99.90;;;;;;6178000;23;20159;-48
2022/12/01 07:37:57;;;;;;;128.37;46.67;;;4.00;99.90;;;;;;6184286;23;20720;-48
2022/12/01 07:40:22;;;;;;;146.67;51.10;;;3.90;99.90;;;;;;6183303;23;20205;-46
2022/12/01 07:42:48;;;;;;;133.00;47.53;;;3.90;99.90;;;;;;6184207;23;20719;-47
2022/12/01 07:45:14;;;;;;;123.87;45.53;;;3.90;99.90;;;;;;6184858;23;20152;-47
2022/12/01 07:47:40;;;;;;;138.17;47.10;;;4.00;99.90;;;;;;6184322;23;20484;-47
2022/12/01 07:50:06;;;;;;;125.97;44.90;;;4.00;99.90;;;;;;6182719;23;20222;-46
2022/12/01 07:52:32;;;;;;;127.13;45.60;;;4.00;86.80;;;;;;6184841;23;20167;-49
2022/12/01 07:54:57;;;;;;;123.43;44.30;;;4.00;65.40;;;;;;6207478;23;20402;-47
2022/12/01 07:57:23;;;;;;;125.43;42.10;;;4.00;21.40;;;;;;6184305;23;20156;-46
2022/12/01 07:59:51;;;;;;;121.43;43.53;;;3.90;1.00;;;;;;6184130;23;20162;-47
2022/12/01 08:02:17;;;;;;;115.47;42.73;;;3.90;1.00;;;;;;6183871;23;20146;-46
2022/12/01 08:04:44;;;;;;;116.63;42.70;;;3.90;1.00;;;;;;6182336;23;20433;-47
2022/12/01 08:07:11;;;;;;;123.93;43.60;;;3.90;1.00;;;;;;6184412;23;20755;-47
2022/12/01 08:09:36;;;;;;;114.10;41.40;;;3.90;1.00;;;;;;6184351;23;20446;-47
2022/12/01 08:12:02;;;;;;;103.73;39.63;;;4.00;1.00;;;;;;6184437;23;20425;-47
2022/12/01 08:14:27;;;;;;;121.87;45.40;;;4.00;1.00;;;;;;6184571;23;20628;-47
2022/12/01 08:16:53;;;;;;;126.10;43.20;;;4.10;1.00;;;;;;6184074;23;20151;-47
2022/12/01 08:19:19;;;;;;;137.13;44.77;;;4.10;4.80;;;;;;6184413;23;20163;-47
2022/12/01 08:21:44;;;;;;;131.10;49.37;;;4.10;8.80;;;;;;6184564;23;20147;-46
2022/12/01 08:24:11;;;;;;;129.50;46.80;;;4.10;5.70;;;;;;6207861;23;20171;-47
2022/12/01 08:26:37;;;;;;;120.30;45.40;;;4.20;6.60;;;;;;6184059;23;20237;-47
2022/12/01 08:29:02;;;;;;;127.73;44.93;;;4.20;1.00;;;;;;6184173;23;20367;-47
2022/12/01 08:31:34;;;;;;;124.40;42.80;;;4.20;1.00;;;;;;6183912;23;20140;-47
2022/12/01 08:34:00;;;;;;;134.23;45.80;;;4.20;1.00;;;;;;6184882;23;20175;-47
2022/12/01 08:36:25;;;;;;;114.90;43.73;;;4.20;1.00;;;;;;6183842;23;20383;-47
2022/12/01 08:38:53;;;;;;;115.40;41.57;;;4.20;1.00;;;;;;6183845;23;20520;-47
2022/12/01 08:41:19;;;;;;;115.77;45.20;;;4.20;1.00;;;;;;6184178;23;20597;-51
2022/12/01 08:43:45;;;;;;;122.97;45.63;;;4.20;1.00;;;;;;6184186;23;20370;-48
2022/12/01 08:46:12;;;;;;;123.20;45.53;;;4.20;1.00;;;;;;6184135;23;20363;-47
2022/12/01 08:48:38;;;;;;;122.83;43.50;;;4.20;1.00;;;;;;6184529;23;20752;-47
2022/12/01 08:51:22;;;;;;;115.93;44.40;;;4.20;1.00;;;;;;6184398;23;20454;-47
2022/12/01 08:53:48;;;;;;;113.73;42.57;;;4.20;1.00;;;;;;6184198;23;20413;-47
2022/12/01 08:56:21;;;;;;;116.90;43.37;;;4.30;1.00;;;;;;6183484;23;20387;-47
2022/12/01 08:58:46;;;;;;;118.53;42.87;;;4.30;1.00;;;;;;6184192;23;20406;-47
2022/12/01 09:01:14;;;;;;;106.27;42.43;;;4.30;1.00;;;;;;6183954;23;20675;-47
2022/12/01 09:03:41;;;;;;;111.67;42.63;;;4.40;1.00;;;;;;6183761;23;20167;-47
2022/12/01 09:06:20;;;;;;;111.53;41.43;;;4.40;1.00;;;;;;6183781;23;20382;-46
2022/12/01 09:08:46;;;;;;;114.60;40.27;;;4.40;1.00;;;;;;6183581;23;20367;-47
2022/12/01 09:11:15;;;;;;;111.90;41.50;;;4.40;1.00;;;;;;6183710;23;20667;-47
2022/12/01 09:13:42;;;;;;;109.07;41.63;;;4.40;1.00;;;;;;6183700;23;20367;-47
2022/12/01 09:16:14;;;;;;;99.13;38.67;;;4.40;1.00;;;;;;6183522;23;20437;-47
2022/12/01 09:18:40;;;;;;;112.80;41.77;;;4.50;1.00;;;;;;6184678;23;20367;-47
2022/12/01 09:21:16;;;;;;;116.90;41.17;;;4.50;1.00;;;;;;6184834;23;20375;-47
2022/12/01 09:23:42;;;;;;;96.00;37.97;;;4.40;99.90;;;;;;6177066;23;20389;-47
2022/12/01 09:26:09;;;;;;;102.93;38.47;;;4.50;99.90;;;;;;6184052;23;20379;-47
2022/12/01 09:28:35;;;;;;;93.70;37.37;;;4.50;99.90;;;;;;6184394;23;20454;-46
2022/12/01 09:31:09;;;;;;;103.40;38.20;;;4.50;1.00;;;;;;6184673;23;20440;-47
2022/12/01 09:33:35;;;;;;;93.37;37.30;;;4.40;1.00;;;;;;6184594;23;20144;-46
2022/12/01 09:36:01;;;;;;;97.73;38.53;;;4.40;1.00;;;;;;6184091;23;20444;-46
2022/12/01 09:38:31;;;;;;;101.20;38.43;;;4.50;1.00;;;;;;6184145;23;20394;-56
2022/12/01 09:41:04;;;;;;;97.87;37.00;;;4.50;1.00;;;;;;6183504;23;20744;-46
2022/12/01 09:43:40;;;;;;;98.13;38.10;;;4.50;1.00;;;;;;6184276;23;20370;-46
2022/12/01 09:46:11;;;;;;;93.67;36.80;;;4.50;1.00;;;;;;6183912;23;20692;-47
2022/12/01 09:48:46;;;;;;;97.17;36.43;;;4.50;1.00;;;;;;6183984;23;20728;-47
2022/12/01 09:51:17;;;;;;;97.53;36.60;;;4.50;1.00;;;;;;6183770;23;20408;-47
2022/12/01 09:53:44;;;;;;;93.20;36.73;;;4.50;99.90;;;;;;6184175;23;20383;-47
2022/12/01 09:56:30;;;;;;;84.33;36.33;;;4.50;1.00;;;;;;6183293;23;20386;-46
2022/12/01 09:58:59;;;;;;;90.07;34.77;;;4.50;99.90;;;;;;6183734;23;21162;-46
2022/12/01 10:01:40;;;;;;;90.70;36.30;;;4.50;99.90;;;;;;6184268;23;20393;-47
2022/12/01 10:04:53;;;;;;;92.03;35.60;;;4.50;99.90;;;;;;6183970;23;20366;-46
2022/12/01 10:07:42;;;;;;;84.20;34.00;;;4.40;76.20;;;;;;6092592;23;20639;-46
2022/12/01 10:10:14;;;;;;;87.00;34.20;;;4.40;99.90;;;;;;6180129;23;20386;-46
2022/12/01 10:12:42;;;;;;;83.90;33.40;;;4.40;99.90;;;;;;6183402;23;20417;-46
2022/12/01 10:15:22;;;;;;;74.80;31.60;;;4.40;99.90;;;;;;6184041;23;20370;-46
2022/12/01 10:18:03;;;;;;;81.17;32.63;;;4.40;99.90;;;;;;6184026;23;20367;-46
2022/12/01 10:20:34;;;;;;;86.57;31.27;;;4.40;99.90;;;;;;6183760;23;20377;-46
2022/12/01 10:23:13;;;;;;;73.63;31.57;;;4.30;99.90;;;;;;6183570;23;20378;-46
2022/12/01 10:26:07;;;;;;;69.67;28.80;;;4.30;99.90;;;;;;6183622;23;20699;-46
2022/12/01 10:28:56;;;;;;;74.17;28.80;;;4.30;1.00;;;;;;6183648;23;20476;-46
2022/12/01 10:31:33;;;;;;;74.40;31.80;;;4.30;64.30;;;;;;6182357;23;20386;-51
2022/12/01 10:34:12;;;;;;;63.53;27.97;;;4.20;1.00;;;;;;6184834;23;20369;-44
2022/12/01 10:36:37;;;;;;;73.27;30.03;;;4.20;65.00;;;;;;6184062;23;20449;-47
2022/12/01 10:39:08;;;;;;;75.73;29.60;;;4.10;1.00;;;;;;6183265;23;20547;-44
2022/12/01 10:41:36;;;;;;;81.47;32.33;;;4.10;99.90;;;;;;6183712;23;20147;-45
2022/12/01 10:44:04;;;;;;;73.67;27.93;;;4.10;44.70;;;;;;6182268;23;20398;-44
2022/12/01 10:46:42;;;;;;;78.03;29.10;;;4.00;1.00;;;;;;6184085;23;20370;-44
2022/12/01 10:49:11;;;;;;;77.43;29.60;;;4.00;99.90;;;;;;6184149;23;20383;-46
2022/12/01 10:51:56;;;;;;;77.57;29.07;;;3.90;99.90;;;;;;6183712;23;20386;-45
2022/12/01 10:54:35;;;;;;;74.33;27.87;;;4.00;1.00;;;;;;6184650;23;20392;-46
2022/12/01 10:57:01;;;;;;;79.93;30.63;;;3.90;1.00;;;;;;6185562;23;20371;-46
2022/12/01 10:59:34;;;;;;;77.20;30.77;;;3.90;1.00;;;;;;6185145;23;20958;-47
2022/12/01 11:02:02;;;;;;;77.47;29.60;;;3.90;9.70;;;;;;6184552;23;20405;-46
2022/12/01 11:04:46;;;;;;;75.43;27.57;;;3.80;1.00;;;;;;6184960;23;20374;-46
2022/12/01 11:07:18;;;;;;;77.20;27.93;;;3.80;99.90;;;;;;6184956;23;20425;-46
2022/12/01 11:09:45;;;;;;;71.13;25.17;;;3.70;99.90;;;;;;6185072;23;20363;-46
2022/12/01 11:12:16;;;;;;;72.57;24.53;;;3.70;99.90;;;;;;6178294;23;20363;-44
2022/12/01 11:14:43;;;;;;;63.87;23.40;;;3.60;99.90;;;;;;6184750;23;20473;-44
2022/12/01 11:17:21;;;;;;;60.10;22.53;;;3.60;1.00;;;;;;6184649;23;20446;-44
2022/12/01 11:19:47;;;;;;;60.87;23.50;;;3.60;99.90;;;;;;6183345;23;20402;-44
2022/12/01 11:22:22;;;;;;;59.77;23.70;;;3.60;1.00;;;;;;6184863;23;20989;-44
2022/12/01 11:24:54;;;;;;;60.47;23.70;;;3.60;1.00;;;;;;6184655;23;20513;-44
2022/12/01 11:27:35;;;;;;;65.37;23.17;;;3.60;84.40;;;;;;6184735;23;20418;-44
2022/12/01 11:30:05;;;;;;;66.70;24.00;;;3.60;99.90;;;;;;6185071;23;20359;-44
2022/12/01 11:32:35;;;;;;;75.07;25.37;;;3.60;1.00;;;;;;6182650;23;20493;-45
2022/12/01 11:35:17;;;;;;;61.67;23.40;;;3.60;1.00;;;;;;6184328;23;20394;-44
2022/12/01 11:37:53;;;;;;;70.73;25.27;;;3.60;99.90;;;;;;6184805;23;20398;-44
2022/12/01 11:40:29;;;;;;;63.13;24.53;;;3.60;1.00;;;;;;6184099;23;20433;-44
2022/12/01 11:42:58;;;;;;;68.43;24.80;;;3.60;1.00;;;;;;6184427;23;20676;-44
2022/12/01 11:45:53;;;;;;;67.97;24.10;;;3.70;1.00;;;;;;6184376;23;20374;-45
2022/12/01 11:48:27;;;;;;;63.93;23.60;;;3.60;1.00;;;;;;6164993;23;20763;-44
2022/12/01 11:51:04;;;;;;;63.10;24.07;;;3.60;29.90;;;;;;6184673;23;20870;-44
2022/12/01 11:53:37;;;;;;;59.63;23.00;;;3.70;99.90;;;;;;6184326;23;20745;-45
2022/12/01 11:56:12;;;;;;;71.90;25.97;;;3.70;99.90;;;;;;6184670;23;20445;-45
2022/12/01 11:58:37;;;;;;;81.97;27.30;;;3.60;99.90;;;;;;6184841;23;20389;-45
2022/12/01 12:01:27;;;;;;;74.07;26.17;;;3.60;99.90;;;;;;6184480;23;21194;-45
2022/12/01 12:04:16;;;;;;;67.20;25.40;;;3.60;99.90;;;;;;6184650;23;20162;-44
2022/12/01 12:07:10;;;;;;;83.43;28.23;;;3.60;1.00;;;;;;6184104;23;20425;-45
2022/12/01 12:09:59;;;;;;;78.47;25.97;;;3.60;1.00;;;;;;6184328;23;20402;-44
2022/12/01 12:12:32;;;;;;;81.17;27.10;;;3.60;1.00;;;;;;6184392;23;20382;-45
2022/12/01 12:14:57;;;;;;;84.73;28.40;;;3.60;1.00;;;;;;6183206;23;20390;-45
2022/12/01 12:17:44;;;;;;;85.67;28.33;;;3.60;1.00;;;;;;6184921;23;20398;-49
2022/12/01 12:20:40;;;;;;;78.30;27.47;;;3.50;1.00;;;;;;6184418;23;20453;-45
2022/12/01 12:23:12;;;;;;;83.40;27.70;;;3.50;1.00;;;;;;6183063;23;20394;-45
2022/12/01 12:26:14;;;;;;;81.80;27.80;;;3.50;1.00;;;;;;6185065;23;20457;-45
2022/12/01 12:28:48;;;;;;;77.83;26.07;;;3.50;42.60;;;;;;6185621;23;20856;-45
2022/12/01 12:31:25;;;;;;;83.23;28.70;;;3.50;50.80;;;;;;6185335;23;20820;-44
2022/12/01 12:34:09;;;;;;;90.20;27.17;;;3.40;96.70;;;;;;6185330;23;20857;-44
2022/12/01 12:36:53;;;;;;;80.90;25.80;;;3.40;99.90;;;;;;6183799;23;20837;-46
2022/12/01 12:39:28;;;;;;;66.10;25.20;;;3.50;99.90;;;;;;6184749;23;20438;-46
2022/12/01 12:41:55;;;;;;;69.50;24.20;;;3.50;99.90;;;;;;6184864;23;20363;-46
2022/12/01 12:44:35;;;;;;;69.83;23.17;;;3.40;99.90;;;;;;6184602;23;20391;-45
2022/12/01 12:47:09;;;;;;;76.07;24.20;;;3.40;99.90;;;;;;6184561;23;20805;-45
2022/12/01 12:50:05;;;;;;;69.37;24.43;;;3.30;99.90;;;;;;6185293;23;20369;-45
2022/12/01 12:52:39;;;;;;;70.50;24.27;;;3.30;99.90;;;;;;6185398;23;20390;-45